createdAt,value
2023-10-06T00:01:45.652Z,7.72
2023-10-06T00:04:16.404Z,7.55
2023-10-06T00:06:43.948Z,7.78
2023-10-06T00:09:13.832Z,7.91
2023-10-06T00:11:41.702Z,8.01
2023-10-06T00:14:09.036Z,8.07
2023-10-06T00:16:41.631Z,7.87
2023-10-06T00:19:37.176Z,7.73
2023-10-06T00:22:24.486Z,7.53
2023-10-06T00:25:00.269Z,7.73
2023-10-06T00:27:30.994Z,7.89
2023-10-06T00:29:58.243Z,7.96
2023-10-06T00:32:28.337Z,7.94
2023-10-06T00:34:56.620Z,7.70
2023-10-06T00:37:23.856Z,7.42
2023-10-06T00:39:51.600Z,7.58
2023-10-06T00:42:21.923Z,7.71
2023-10-06T00:44:48.517Z,7.70
2023-10-06T00:47:16.784Z,7.73
2023-10-06T00:49:44.694Z,7.72
2023-10-06T00:52:13.437Z,7.70
2023-10-06T00:54:48.195Z,7.69
2023-10-06T00:57:20.032Z,7.62
2023-10-06T00:59:46.865Z,7.46
2023-10-06T01:02:15.249Z,7.30
2023-10-06T01:04:54.062Z,7.33
2023-10-06T01:07:20.819Z,7.42
2023-10-06T01:09:57.322Z,7.40
2023-10-06T01:12:25.701Z,7.31
2023-10-06T01:14:53.919Z,7.27
2023-10-06T01:17:20.764Z,7.15
2023-10-06T01:19:50.712Z,7.29
2023-10-06T01:22:29.957Z,7.33
2023-10-06T01:24:57.105Z,7.35
2023-10-06T01:27:27.485Z,7.48
2023-10-06T01:30:16.262Z,7.40
2023-10-06T01:32:45.223Z,7.22
2023-10-06T01:35:16.521Z,7.20
2023-10-06T01:37:48.900Z,7.22
2023-10-06T01:40:30.439Z,7.24
2023-10-06T01:42:57.190Z,7.25
2023-10-06T01:45:23.799Z,7.22
2023-10-06T01:48:10.647Z,7.19
2023-10-06T01:50:37.342Z,7.12
2023-10-06T01:53:08.171Z,7.13
2023-10-06T01:55:40.804Z,7.08
2023-10-06T01:58:12.262Z,7.13
2023-10-06T02:00:39.200Z,7.05
2023-10-06T02:03:11.389Z,7.00
2023-10-06T02:05:41.461Z,7.00
2023-10-06T02:08:10.891Z,6.95
2023-10-06T02:10:38.007Z,6.94
2023-10-06T02:13:06.888Z,6.93
2023-10-06T02:15:33.467Z,6.97
2023-10-06T02:18:00.109Z,7.01
2023-10-06T02:20:26.736Z,7.01
2023-10-06T02:22:53.751Z,7.00
2023-10-06T02:25:24.221Z,6.91
2023-10-06T02:27:51.580Z,6.91
2023-10-06T02:30:20.495Z,6.86
2023-10-06T02:32:47.235Z,6.85
2023-10-06T02:35:14.453Z,6.86
2023-10-06T02:37:41.176Z,6.75
2023-10-06T02:40:17.780Z,6.84
2023-10-06T02:42:57.843Z,6.84
2023-10-06T02:45:31.444Z,6.81
2023-10-06T02:48:00.004Z,6.84
2023-10-06T02:50:26.669Z,6.79
2023-10-06T02:52:55.204Z,6.69
2023-10-06T02:55:22.738Z,6.60
2023-10-06T02:57:59.171Z,6.50
2023-10-06T03:00:25.718Z,6.48
2023-10-06T03:02:57.108Z,6.52
2023-10-06T03:05:33.638Z,6.52
2023-10-06T03:08:09.651Z,6.50
2023-10-06T03:10:44.029Z,6.47
2023-10-06T03:13:14.655Z,6.43
2023-10-06T03:15:50.971Z,6.48
2023-10-06T03:18:18.169Z,6.36
2023-10-06T03:20:48.924Z,6.41
2023-10-06T03:23:31.941Z,6.32
2023-10-06T03:25:59.004Z,6.36
2023-10-06T03:28:33.202Z,6.29
2023-10-06T03:31:22.749Z,6.42
2023-10-06T03:33:53.450Z,6.43
2023-10-06T03:36:29.553Z,6.30
2023-10-06T03:39:07.062Z,6.38
2023-10-06T03:41:38.130Z,6.30
2023-10-06T03:44:05.549Z,6.20
2023-10-06T03:46:40.644Z,6.27
2023-10-06T03:49:09.267Z,6.25
2023-10-06T03:51:39.924Z,6.21
2023-10-06T03:54:07.408Z,6.20
2023-10-06T03:56:33.982Z,6.21
2023-10-06T03:59:14.154Z,6.17
2023-10-06T04:01:43.632Z,6.17
2023-10-06T04:04:10.377Z,6.15
2023-10-06T04:06:37.529Z,6.09
2023-10-06T04:09:04.344Z,6.04
2023-10-06T04:11:35.448Z,6.05
2023-10-06T04:14:02.382Z,6.07
2023-10-06T04:16:29.065Z,6.06
2023-10-06T04:18:55.642Z,6.03
2023-10-06T04:21:25.331Z,6.08
2023-10-06T04:23:52.015Z,6.12
2023-10-06T04:26:19.477Z,5.99
2023-10-06T04:28:48.182Z,5.91
2023-10-06T04:31:16.670Z,5.91
2023-10-06T04:33:43.831Z,5.89
2023-10-06T04:36:11.175Z,5.90
2023-10-06T04:38:41.737Z,5.91
2023-10-06T04:41:10.265Z,5.87
2023-10-06T04:43:38.042Z,5.75
2023-10-06T04:46:07.652Z,5.81
2023-10-06T04:48:37.165Z,5.78
2023-10-06T04:51:04.491Z,5.82
2023-10-06T04:53:36.150Z,5.90
2023-10-06T04:56:06.708Z,5.86
2023-10-06T04:58:40.159Z,5.82
2023-10-06T05:01:09.066Z,5.88
2023-10-06T05:03:44.501Z,5.93
2023-10-06T05:06:15.002Z,5.89
2023-10-06T05:08:42.226Z,5.84
2023-10-06T05:11:11.812Z,5.86
2023-10-06T05:13:38.973Z,5.88
2023-10-06T05:16:05.624Z,5.91
2023-10-06T05:18:34.207Z,5.84
2023-10-06T05:21:02.285Z,5.90
2023-10-06T05:23:28.875Z,5.84
2023-10-06T05:26:03.471Z,5.82
2023-10-06T05:28:30.915Z,5.85
2023-10-06T05:30:57.910Z,5.83
2023-10-06T05:33:26.308Z,5.83
2023-10-06T05:35:53.206Z,5.85
2023-10-06T05:38:20.458Z,5.80
2023-10-06T05:40:48.113Z,5.88
2023-10-06T05:43:18.326Z,5.97
2023-10-06T05:45:46.515Z,6.06
2023-10-06T05:48:13.938Z,6.13
2023-10-06T05:50:41.993Z,6.14
2023-10-06T05:53:20.839Z,6.13
2023-10-06T05:55:50.983Z,6.27
2023-10-06T05:58:20.565Z,6.24
2023-10-06T06:00:58.521Z,6.20
2023-10-06T06:03:25.714Z,6.39
2023-10-06T06:05:58.864Z,6.50
2023-10-06T06:08:25.532Z,6.64
2023-10-06T06:10:52.153Z,6.64
2023-10-06T06:13:20.977Z,6.68
2023-10-06T06:15:49.609Z,6.80
2023-10-06T06:18:16.792Z,6.71
2023-10-06T06:20:43.530Z,6.75
2023-10-06T06:23:13.269Z,6.90
2023-10-06T06:25:40.871Z,6.94
2023-10-06T06:28:09.109Z,6.95
2023-10-06T06:30:38.264Z,7.09
2023-10-06T06:33:06.245Z,7.12
2023-10-06T06:35:34.060Z,6.93
2023-10-06T06:38:01.105Z,7.24
2023-10-06T06:40:29.901Z,7.32
2023-10-06T06:42:59.232Z,7.36
2023-10-06T06:45:25.816Z,7.28
2023-10-06T06:47:52.803Z,7.38
2023-10-06T06:50:20.171Z,7.27
2023-10-06T06:52:47.727Z,7.53
2023-10-06T06:55:14.940Z,7.50
2023-10-06T06:57:44.265Z,7.45
2023-10-06T07:00:16.950Z,7.47
2023-10-06T07:02:47.022Z,7.57
2023-10-06T07:05:14.347Z,7.65
2023-10-06T07:07:41.599Z,7.46
2023-10-06T07:10:11.442Z,7.65
2023-10-06T07:12:38.544Z,7.53
2023-10-06T07:15:05.344Z,7.44
2023-10-06T07:17:33.195Z,7.73
2023-10-06T07:20:02.083Z,7.66
2023-10-06T07:22:32.713Z,7.86
2023-10-06T07:24:59.291Z,7.94
2023-10-06T07:27:25.955Z,7.96
2023-10-06T07:29:53.043Z,7.98
2023-10-06T07:32:19.583Z,7.98
2023-10-06T07:34:46.173Z,7.89
2023-10-06T07:37:12.842Z,8.16
2023-10-06T07:39:39.368Z,8.11
2023-10-06T07:42:07.837Z,8.22
2023-10-06T07:44:34.502Z,8.22
2023-10-06T07:47:02.178Z,8.24
2023-10-06T07:49:31.311Z,8.02
2023-10-06T07:51:57.877Z,8.07
2023-10-06T07:54:24.586Z,8.16
2023-10-06T07:56:52.521Z,8.29
2023-10-06T07:59:19.310Z,8.29
2023-10-06T08:01:45.845Z,8.22
2023-10-06T08:04:13.440Z,8.40
2023-10-06T08:06:39.990Z,8.38
2023-10-06T08:09:06.869Z,8.46
2023-10-06T08:11:33.816Z,8.68
2023-10-06T08:14:01.034Z,8.61
2023-10-06T08:16:31.336Z,8.66
2023-10-06T08:18:57.865Z,8.77
2023-10-06T08:21:24.402Z,8.89
2023-10-06T08:23:51.572Z,8.88
2023-10-06T08:26:18.235Z,8.91
2023-10-06T08:28:46.507Z,8.93
2023-10-06T08:31:16.852Z,8.96
2023-10-06T08:33:44.847Z,9.27
2023-10-06T08:36:11.906Z,9.24
2023-10-06T08:38:38.840Z,9.32
2023-10-06T08:41:05.800Z,9.23
2023-10-06T08:43:35.734Z,9.49
2023-10-06T08:46:02.981Z,9.62
2023-10-06T08:48:33.777Z,9.61
2023-10-06T08:51:04.621Z,9.58
2023-10-06T08:53:32.231Z,9.78
2023-10-06T08:55:59.118Z,9.86
2023-10-06T08:58:28.135Z,9.70
2023-10-06T09:00:56.969Z,9.91
2023-10-06T09:03:25.808Z,9.92
2023-10-06T09:05:54.668Z,9.87
2023-10-06T09:08:21.318Z,10.02
2023-10-06T09:10:51.950Z,9.98
2023-10-06T09:13:19.365Z,10.07
2023-10-06T09:16:00.941Z,10.02
2023-10-06T09:18:33.027Z,9.97
2023-10-06T09:21:13.375Z,10.09
2023-10-06T09:23:43.038Z,10.34
2023-10-06T09:26:12.824Z,10.19
2023-10-06T09:28:52.916Z,10.41
2023-10-06T09:31:39.402Z,10.41
2023-10-06T09:34:09.110Z,10.67
2023-10-06T09:36:44.292Z,10.79
2023-10-06T09:39:21.466Z,10.95
2023-10-06T09:41:49.627Z,10.95
2023-10-06T09:44:20.222Z,11.16
2023-10-06T09:46:47.810Z,11.42
2023-10-06T09:49:17.648Z,11.13
2023-10-06T09:51:44.722Z,11.52
2023-10-06T09:54:11.715Z,11.71
2023-10-06T09:56:41.711Z,11.83
2023-10-06T09:59:15.183Z,11.96
2023-10-06T10:01:47.080Z,12.12
2023-10-06T10:04:15.160Z,12.26
2023-10-06T10:06:45.801Z,12.50
2023-10-06T10:09:17.209Z,12.64
2023-10-06T10:11:57.157Z,12.88
2023-10-06T10:14:38.756Z,13.01
2023-10-06T10:17:15.264Z,13.23
2023-10-06T10:19:44.815Z,13.24
2023-10-06T10:22:14.796Z,13.43
2023-10-06T10:27:28.333Z,13.90
2023-10-06T10:29:54.928Z,14.08
2023-10-06T10:32:24.578Z,14.31
2023-10-06T10:35:15.865Z,14.53
2023-10-06T10:37:52.630Z,14.80
2023-10-06T10:40:24.403Z,14.90
2023-10-06T10:42:54.897Z,15.25
2023-10-06T10:45:45.652Z,15.14
2023-10-06T10:48:16.209Z,15.35
2023-10-06T10:51:02.091Z,15.95
2023-10-06T10:53:30.714Z,16.24
2023-10-06T10:55:58.016Z,16.47
2023-10-06T10:58:43.347Z,16.73
2023-10-06T11:01:23.906Z,16.97
2023-10-06T11:04:10.077Z,16.87
2023-10-06T11:06:37.161Z,17.23
2023-10-06T11:09:22.576Z,17.05
2023-10-06T11:11:49.271Z,17.97
2023-10-06T11:14:16.118Z,17.62
2023-10-06T11:16:48.637Z,17.70
2023-10-06T11:19:16.401Z,17.77
2023-10-06T11:21:45.332Z,17.72
2023-10-06T11:24:13.939Z,18.50
2023-10-06T11:26:44.557Z,18.19
2023-10-06T11:32:42.588Z,17.45
2023-10-06T11:35:11.112Z,17.74
2023-10-06T11:37:37.866Z,17.73
2023-10-06T11:40:05.249Z,17.71
2023-10-06T11:42:33.687Z,18.07
2023-10-06T11:45:01.193Z,18.30
2023-10-06T11:47:27.743Z,18.30
2023-10-06T11:49:54.604Z,18.58
2023-10-06T11:52:23.621Z,18.62
2023-10-06T11:54:50.612Z,18.52
2023-10-06T11:57:17.773Z,18.98
2023-10-06T11:59:50.895Z,19.85
2023-10-06T12:02:18.072Z,19.76
2023-10-06T12:04:45.365Z,19.54
2023-10-06T12:07:21.853Z,20.23
2023-10-06T12:09:49.875Z,19.72
2023-10-06T12:12:19.588Z,19.52
2023-10-06T12:14:46.422Z,19.02
2023-10-06T12:17:14.890Z,19.14
2023-10-06T12:19:43.504Z,19.28
2023-10-06T12:22:14.386Z,18.74
2023-10-06T12:24:41.634Z,18.53
2023-10-06T12:27:10.664Z,17.98
2023-10-06T12:29:37.317Z,18.12
2023-10-06T12:32:05.483Z,17.96
2023-10-06T12:34:32.864Z,18.85
2023-10-06T12:37:03.394Z,19.37
2023-10-06T12:39:36.106Z,19.11
2023-10-06T12:42:07.942Z,19.26
2023-10-06T12:44:40.755Z,19.56
2023-10-06T12:47:12.158Z,19.41
2023-10-06T12:49:43.452Z,19.90
2023-10-06T12:52:17.391Z,19.85
2023-10-06T12:54:45.626Z,20.05
2023-10-06T12:57:12.346Z,20.47
2023-10-06T12:59:39.054Z,20.51
2023-10-06T13:02:06.059Z,19.92
2023-10-06T13:04:36.294Z,20.03
2023-10-06T13:07:06.376Z,20.87
2023-10-06T13:09:37.013Z,20.49
2023-10-06T13:12:05.151Z,20.50
2023-10-06T13:14:32.605Z,20.85
2023-10-06T13:16:59.289Z,21.12
2023-10-06T13:19:25.827Z,22.26
2023-10-06T13:21:53.536Z,22.53
2023-10-06T13:24:21.098Z,22.79
2023-10-06T13:26:47.681Z,21.40
2023-10-06T13:29:14.267Z,21.33
2023-10-06T13:31:42.153Z,22.69
2023-10-06T13:34:09.435Z,22.52
2023-10-06T13:36:36.185Z,22.58
2023-10-06T13:39:03.910Z,22.68
2023-10-06T13:41:30.772Z,22.20
2023-10-06T13:43:57.307Z,22.24
2023-10-06T13:46:24.835Z,22.05
2023-10-06T13:48:51.534Z,22.09
2023-10-06T13:51:18.187Z,21.37
2023-10-06T13:53:45.311Z,21.23
2023-10-06T13:56:12.146Z,21.47
2023-10-06T13:58:38.807Z,21.93
2023-10-06T14:01:05.766Z,22.61
2023-10-06T14:03:32.612Z,22.91
2023-10-06T14:06:01.675Z,23.25
2023-10-06T14:08:29.705Z,22.58
2023-10-06T14:10:57.213Z,22.68
2023-10-06T14:13:28.686Z,22.25
2023-10-06T14:16:01.473Z,22.11
2023-10-06T14:18:31.407Z,22.03
2023-10-06T14:21:07.048Z,21.32
2023-10-06T14:23:36.352Z,21.80
2023-10-06T14:26:08.006Z,21.73
2023-10-06T14:28:34.595Z,21.70
2023-10-06T14:31:19.618Z,21.83
2023-10-06T14:33:48.700Z,21.59
2023-10-06T14:36:24.071Z,21.53
2023-10-06T14:39:09.036Z,21.49
2023-10-06T14:41:54.293Z,21.58
2023-10-06T14:44:39.627Z,21.74
2023-10-06T14:47:09.154Z,21.73
2023-10-06T14:49:40.504Z,21.27
2023-10-06T14:52:09.320Z,21.53
2023-10-06T14:54:36.183Z,21.62
2023-10-06T14:57:04.207Z,21.23
2023-10-06T14:59:33.959Z,21.36
2023-10-06T15:02:11.456Z,21.18
2023-10-06T15:04:42.078Z,21.04
2023-10-06T15:07:10.274Z,20.72
2023-10-06T15:09:39.273Z,20.45
2023-10-06T15:12:06.795Z,20.60
2023-10-06T15:17:23.885Z,20.41
2023-10-06T15:19:51.560Z,20.57
2023-10-06T15:22:18.241Z,20.53
2023-10-06T15:24:44.830Z,20.35
2023-10-06T15:27:11.845Z,20.59
2023-10-06T15:29:39.541Z,20.36
2023-10-06T15:32:07.006Z,20.24
2023-10-06T15:34:36.135Z,19.87
2023-10-06T15:37:03.209Z,19.80
2023-10-06T15:39:32.230Z,19.27
2023-10-06T15:41:59.699Z,19.23
2023-10-06T15:44:28.225Z,19.05
2023-10-06T15:46:57.837Z,18.90
2023-10-06T15:49:24.730Z,18.66
2023-10-06T15:51:51.477Z,18.50
2023-10-06T15:54:18.157Z,17.88
2023-10-06T15:56:45.168Z,17.93
2023-10-06T15:59:16.419Z,17.68
2023-10-06T16:01:44.538Z,17.63
2023-10-06T16:04:14.944Z,17.42
2023-10-06T16:06:42.880Z,17.27
2023-10-06T16:09:11.063Z,17.05
2023-10-06T16:11:40.834Z,16.95
2023-10-06T16:14:07.539Z,16.75
2023-10-06T16:16:35.896Z,16.69
2023-10-06T16:19:04.391Z,16.62
2023-10-06T16:21:33.004Z,16.52
2023-10-06T16:24:00.100Z,16.36
2023-10-06T16:26:27.270Z,16.20
2023-10-06T16:28:53.842Z,16.03
2023-10-06T16:31:21.064Z,15.95
2023-10-06T16:33:47.745Z,15.70
2023-10-06T16:36:14.341Z,15.68
2023-10-06T16:38:42.082Z,15.51
2023-10-06T16:41:12.617Z,15.51
2023-10-06T16:43:39.411Z,15.56
2023-10-06T16:46:07.305Z,15.48
2023-10-06T16:48:36.185Z,15.36
2023-10-06T16:51:04.813Z,15.27
2023-10-06T16:53:31.469Z,15.12
2023-10-06T16:55:59.041Z,15.09
2023-10-06T16:58:26.135Z,14.92
2023-10-06T17:00:54.389Z,14.90
2023-10-06T17:03:22.063Z,14.88
2023-10-06T17:05:52.067Z,14.79
2023-10-06T17:08:19.979Z,14.77
2023-10-06T17:10:46.721Z,14.68
2023-10-06T17:13:18.781Z,14.60
2023-10-06T17:15:49.558Z,14.52
2023-10-06T17:18:19.104Z,14.54
2023-10-06T17:20:45.839Z,14.55
2023-10-06T17:23:12.863Z,14.49
2023-10-06T17:25:40.521Z,14.34
2023-10-06T17:28:08.645Z,14.31
2023-10-06T17:30:37.272Z,14.28
2023-10-06T17:33:08.325Z,14.27
2023-10-06T17:35:35.684Z,14.25
2023-10-06T17:38:02.424Z,14.21
2023-10-06T17:40:30.200Z,14.20
2023-10-06T17:42:56.726Z,14.10
2023-10-06T17:45:26.574Z,13.94
2023-10-06T17:47:56.359Z,13.93
2023-10-06T17:50:24.016Z,13.87
2023-10-06T17:52:50.750Z,13.86
2023-10-06T17:55:17.345Z,13.89
2023-10-06T17:57:43.994Z,13.84
2023-10-06T18:00:12.208Z,13.74
2023-10-06T18:02:41.893Z,13.65
2023-10-06T18:05:09.761Z,13.65
2023-10-06T18:07:36.675Z,13.58
2023-10-06T18:10:09.153Z,13.53
2023-10-06T18:12:36.720Z,13.37
2023-10-06T18:15:06.996Z,13.33
2023-10-06T18:17:33.932Z,13.37
2023-10-06T18:20:00.527Z,13.35
2023-10-06T18:22:28.369Z,13.37
2023-10-06T18:24:54.985Z,13.31
2023-10-06T18:27:22.569Z,13.23
2023-10-06T18:29:49.278Z,13.11
2023-10-06T18:32:15.986Z,13.20
2023-10-06T18:34:43.151Z,13.19
2023-10-06T18:37:09.784Z,13.19
2023-10-06T18:39:37.152Z,13.23
2023-10-06T18:42:03.740Z,13.21
2023-10-06T18:44:30.534Z,13.11
2023-10-06T18:46:57.133Z,13.10
2023-10-06T18:49:23.714Z,13.12
2023-10-06T18:51:50.277Z,13.10
2023-10-06T18:54:16.946Z,13.01
2023-10-06T18:56:43.548Z,12.91
2023-10-06T18:59:12.420Z,12.80
2023-10-06T19:01:39.328Z,12.86
2023-10-06T19:04:10.746Z,12.83
2023-10-06T19:06:41.519Z,12.85
2023-10-06T19:09:11.184Z,12.83
2023-10-06T19:11:38.273Z,12.79
2023-10-06T19:14:06.059Z,12.79
2023-10-06T19:16:33.163Z,12.76
2023-10-06T19:19:01.014Z,12.64
2023-10-06T19:21:27.702Z,12.62
2023-10-06T19:23:54.189Z,12.61
2023-10-06T19:26:21.025Z,12.49
2023-10-06T19:28:48.211Z,12.44
2023-10-06T19:31:15.074Z,12.45
2023-10-06T19:33:59.937Z,12.29
2023-10-06T19:36:27.020Z,12.38
2023-10-06T19:38:55.666Z,12.32
2023-10-06T19:41:22.815Z,12.27
2023-10-06T19:43:49.672Z,12.24
2023-10-06T19:46:16.404Z,12.27
2023-10-06T19:48:54.895Z,12.09
2023-10-06T19:51:22.270Z,12.14
2023-10-06T19:53:48.956Z,12.27
2023-10-06T19:56:15.920Z,11.93
2023-10-06T19:58:42.663Z,11.85
2023-10-06T20:01:10.700Z,11.94
2023-10-06T20:03:38.987Z,12.10
2023-10-06T20:06:06.063Z,12.00
2023-10-06T20:08:33.627Z,11.89
2023-10-06T20:11:01.687Z,11.97
2023-10-06T20:13:30.259Z,11.92
2023-10-06T20:15:58.059Z,11.92
2023-10-06T20:18:25.064Z,11.95
2023-10-06T20:20:53.782Z,11.97
2023-10-06T20:23:20.653Z,11.93
2023-10-06T20:25:47.392Z,11.87
2023-10-06T20:28:15.620Z,12.00
2023-10-06T20:30:42.466Z,11.79
2023-10-06T20:33:09.144Z,11.82
2023-10-06T20:35:37.090Z,11.81
2023-10-06T20:38:04.636Z,11.57
2023-10-06T20:40:33.853Z,11.64
2023-10-06T20:43:03.520Z,11.47
2023-10-06T20:45:32.707Z,11.59
2023-10-06T20:48:00.398Z,11.68
2023-10-06T20:50:28.577Z,11.42
2023-10-06T20:52:56.078Z,11.61
2023-10-06T20:55:23.201Z,11.51
2023-10-06T20:57:51.211Z,11.50
2023-10-06T21:00:19.593Z,11.59
2023-10-06T21:02:48.125Z,11.52
2023-10-06T21:05:16.772Z,11.25
2023-10-06T21:07:44.080Z,11.35
2023-10-06T21:10:11.446Z,11.15
2023-10-06T21:12:38.907Z,11.42
2023-10-06T21:15:05.944Z,11.35
2023-10-06T21:17:32.738Z,11.42
2023-10-06T21:19:59.992Z,11.44
2023-10-06T21:22:28.242Z,11.35
2023-10-06T21:24:57.775Z,11.40
2023-10-06T21:27:24.319Z,11.35
2023-10-06T21:29:50.882Z,11.37
2023-10-06T21:32:17.534Z,11.16
2023-10-06T21:34:44.876Z,11.19
2023-10-06T21:37:11.528Z,10.99
2023-10-06T21:39:38.097Z,10.87
2023-10-06T21:42:04.708Z,10.99
2023-10-06T21:44:31.199Z,10.98
2023-10-06T21:46:58.248Z,10.85
2023-10-06T21:49:27.966Z,10.84
2023-10-06T21:51:54.560Z,10.85
2023-10-06T21:54:21.085Z,10.78
2023-10-06T21:56:47.623Z,10.82
2023-10-06T21:59:14.246Z,10.62
2023-10-06T22:01:40.855Z,10.69
2023-10-06T22:04:07.620Z,10.36
2023-10-06T22:06:34.321Z,10.48
2023-10-06T22:09:00.872Z,10.40
2023-10-06T22:11:27.452Z,10.56
2023-10-06T22:13:54.841Z,10.47
2023-10-06T22:16:21.558Z,10.52
2023-10-06T22:18:48.269Z,10.51
2023-10-06T22:21:15.553Z,10.34
2023-10-06T22:23:43.132Z,10.37
2023-10-06T22:26:09.871Z,10.41
2023-10-06T22:28:36.773Z,10.31
2023-10-06T22:31:05.439Z,10.39
2023-10-06T22:33:32.685Z,10.42
2023-10-06T22:35:59.514Z,10.41
2023-10-06T22:38:26.438Z,10.35
2023-10-06T22:40:53.291Z,10.19
2023-10-06T22:43:20.118Z,10.27
2023-10-06T22:45:46.757Z,10.09
2023-10-06T22:48:13.481Z,10.22
2023-10-06T22:50:41.005Z,10.14
2023-10-06T22:53:08.040Z,10.18
2023-10-06T22:55:36.943Z,10.30
2023-10-06T22:58:03.816Z,10.18
2023-10-06T23:00:30.537Z,9.82
2023-10-06T23:02:57.974Z,9.99
2023-10-06T23:05:25.605Z,9.96
2023-10-06T23:07:52.793Z,9.93
2023-10-06T23:10:19.830Z,9.74
2023-10-06T23:12:52.788Z,9.88
2023-10-06T23:15:20.291Z,9.55
2023-10-06T23:17:47.233Z,9.41
2023-10-06T23:20:23.137Z,9.43
2023-10-06T23:22:58.996Z,9.30
2023-10-06T23:25:33.029Z,9.43
2023-10-06T23:27:59.605Z,9.39
2023-10-06T23:30:26.137Z,9.49
2023-10-06T23:32:52.691Z,9.54
2023-10-06T23:35:19.245Z,9.30
2023-10-06T23:37:55.754Z,9.39
2023-10-06T23:40:26.593Z,9.44
2023-10-06T23:42:56.293Z,9.42
2023-10-06T23:45:32.795Z,9.45
2023-10-06T23:48:00.446Z,9.48
2023-10-06T23:50:30.338Z,9.48
2023-10-06T23:53:01.348Z,9.32
2023-10-06T23:55:28.486Z,9.33
2023-10-06T23:57:55.715Z,9.39
